sensor_id;sensor_type;location;lat;lon;timestamp;P1;durP1;ratioP1;P2;durP2;ratioP2
54683;SDS011;40582;53.100;6.686;2022-10-14T00:01:08;76.20;;;42.42;;
54683;SDS011;40582;53.100;6.686;2022-10-14T00:03:36;87.40;;;45.08;;
54683;SDS011;40582;53.100;6.686;2022-10-14T00:06:06;92.53;;;45.70;;
54683;SDS011;40582;53.100;6.686;2022-10-14T00:08:37;70.90;;;40.97;;
54683;SDS011;40582;53.100;6.686;2022-10-14T00:11:04;81.50;;;43.65;;
54683;SDS011;40582;53.100;6.686;2022-10-14T00:13:34;103.32;;;46.70;;
54683;SDS011;40582;53.100;6.686;2022-10-14T00:16:00;103.60;;;48.38;;
54683;SDS011;40582;53.100;6.686;2022-10-14T00:18:27;286.75;;;55.03;;
54683;SDS011;40582;53.100;6.686;2022-10-14T00:20:53;143.63;;;52.85;;
54683;SDS011;40582;53.100;6.686;2022-10-14T00:23:20;129.90;;;52.30;;
54683;SDS011;40582;53.100;6.686;2022-10-14T00:25:46;127.57;;;51.72;;
54683;SDS011;40582;53.100;6.686;2022-10-14T00:28:12;70.57;;;32.17;;
54683;SDS011;40582;53.100;6.686;2022-10-14T00:30:37;212.20;;;51.88;;
54683;SDS011;40582;53.100;6.686;2022-10-14T00:33:03;162.25;;;48.42;;
54683;SDS011;40582;53.100;6.686;2022-10-14T00:35:28;304.27;;;44.53;;
54683;SDS011;40582;53.100;6.686;2022-10-14T00:37:56;180.50;;;44.83;;
54683;SDS011;40582;53.100;6.686;2022-10-14T00:40:23;202.00;;;45.33;;
54683;SDS011;40582;53.100;6.686;2022-10-14T00:42:49;138.55;;;43.25;;
54683;SDS011;40582;53.100;6.686;2022-10-14T00:45:18;222.65;;;40.58;;
54683;SDS011;40582;53.100;6.686;2022-10-14T00:47:45;188.27;;;39.72;;
54683;SDS011;40582;53.100;6.686;2022-10-14T00:50:12;88.95;;;39.08;;
54683;SDS011;40582;53.100;6.686;2022-10-14T00:52:39;393.52;;;40.10;;
54683;SDS011;40582;53.100;6.686;2022-10-14T00:55:07;256.17;;;40.25;;
54683;SDS011;40582;53.100;6.686;2022-10-14T00:57:37;242.43;;;36.03;;
54683;SDS011;40582;53.100;6.686;2022-10-14T01:00:05;207.10;;;36.30;;
54683;SDS011;40582;53.100;6.686;2022-10-14T01:02:33;196.65;;;35.53;;
54683;SDS011;40582;53.100;6.686;2022-10-14T01:04:59;101.50;;;31.30;;
54683;SDS011;40582;53.100;6.686;2022-10-14T01:07:35;156.38;;;31.60;;
54683;SDS011;40582;53.100;6.686;2022-10-14T01:10:29;201.50;;;34.13;;
54683;SDS011;40582;53.100;6.686;2022-10-14T01:24:06;135.98;;;27.90;;
54683;SDS011;40582;53.100;6.686;2022-10-14T01:32:21;34.78;;;25.48;;
54683;SDS011;40582;53.100;6.686;2022-10-14T01:35:10;116.15;;;27.58;;
54683;SDS011;40582;53.100;6.686;2022-10-14T01:37:49;62.35;;;25.58;;
54683;SDS011;40582;53.100;6.686;2022-10-14T01:40:25;55.33;;;23.40;;
54683;SDS011;40582;53.100;6.686;2022-10-14T01:43:07;124.53;;;24.88;;
54683;SDS011;40582;53.100;6.686;2022-10-14T01:45:37;93.45;;;22.15;;
54683;SDS011;40582;53.100;6.686;2022-10-14T01:48:06;51.42;;;19.90;;
54683;SDS011;40582;53.100;6.686;2022-10-14T01:50:33;84.72;;;20.60;;
54683;SDS011;40582;53.100;6.686;2022-10-14T01:53:02;122.57;;;21.77;;
54683;SDS011;40582;53.100;6.686;2022-10-14T01:55:34;52.40;;;19.85;;
54683;SDS011;40582;53.100;6.686;2022-10-14T01:58:05;23.40;;;19.13;;
54683;SDS011;40582;53.100;6.686;2022-10-14T02:00:32;28.23;;;18.63;;
54683;SDS011;40582;53.100;6.686;2022-10-14T02:02:58;46.95;;;18.38;;
54683;SDS011;40582;53.100;6.686;2022-10-14T02:05:37;127.32;;;21.73;;
54683;SDS011;40582;53.100;6.686;2022-10-14T02:08:10;34.47;;;19.55;;
54683;SDS011;40582;53.100;6.686;2022-10-14T02:11:13;359.67;;;21.90;;
54683;SDS011;40582;53.100;6.686;2022-10-14T02:16:50;41.95;;;17.05;;
54683;SDS011;40582;53.100;6.686;2022-10-14T02:22:03;60.15;;;17.25;;
54683;SDS011;40582;53.100;6.686;2022-10-14T02:24:34;79.75;;;18.50;;
54683;SDS011;40582;53.100;6.686;2022-10-14T02:27:05;160.63;;;19.20;;
54683;SDS011;40582;53.100;6.686;2022-10-14T02:29:34;165.45;;;16.73;;
54683;SDS011;40582;53.100;6.686;2022-10-14T02:32:01;97.35;;;16.35;;
54683;SDS011;40582;53.100;6.686;2022-10-14T02:34:28;146.65;;;16.83;;
54683;SDS011;40582;53.100;6.686;2022-10-14T02:36:56;126.68;;;15.00;;
54683;SDS011;40582;53.100;6.686;2022-10-14T02:39:24;159.55;;;15.45;;
54683;SDS011;40582;53.100;6.686;2022-10-14T02:41:54;186.00;;;15.88;;
54683;SDS011;40582;53.100;6.686;2022-10-14T02:44:20;208.10;;;16.45;;
54683;SDS011;40582;53.100;6.686;2022-10-14T02:46:46;14.85;;;12.75;;
54683;SDS011;40582;53.100;6.686;2022-10-14T02:49:12;79.75;;;13.30;;
54683;SDS011;40582;53.100;6.686;2022-10-14T02:51:39;99.82;;;13.77;;
54683;SDS011;40582;53.100;6.686;2022-10-14T02:54:05;86.53;;;12.63;;
54683;SDS011;40582;53.100;6.686;2022-10-14T02:56:30;33.80;;;11.73;;
54683;SDS011;40582;53.100;6.686;2022-10-14T02:58:56;58.60;;;11.68;;
54683;SDS011;40582;53.100;6.686;2022-10-14T03:01:22;73.45;;;11.95;;
54683;SDS011;40582;53.100;6.686;2022-10-14T03:03:47;129.75;;;12.68;;
54683;SDS011;40582;53.100;6.686;2022-10-14T03:06:13;55.40;;;12.10;;
54683;SDS011;40582;53.100;6.686;2022-10-14T03:08:39;128.10;;;13.32;;
54683;SDS011;40582;53.100;6.686;2022-10-14T03:11:04;71.82;;;11.98;;
54683;SDS011;40582;53.100;6.686;2022-10-14T03:13:30;348.35;;;16.15;;
54683;SDS011;40582;53.100;6.686;2022-10-14T03:15:56;49.38;;;11.90;;
54683;SDS011;40582;53.100;6.686;2022-10-14T03:18:22;34.10;;;12.25;;
54683;SDS011;40582;53.100;6.686;2022-10-14T03:20:47;22.75;;;12.80;;
54683;SDS011;40582;53.100;6.686;2022-10-14T03:23:13;86.50;;;12.73;;
54683;SDS011;40582;53.100;6.686;2022-10-14T03:25:39;158.93;;;14.40;;
54683;SDS011;40582;53.100;6.686;2022-10-14T03:28:07;339.48;;;16.60;;
54683;SDS011;40582;53.100;6.686;2022-10-14T03:30:32;137.93;;;14.52;;
54683;SDS011;40582;53.100;6.686;2022-10-14T03:32:58;126.22;;;15.32;;
54683;SDS011;40582;53.100;6.686;2022-10-14T03:35:24;151.15;;;14.85;;
54683;SDS011;40582;53.100;6.686;2022-10-14T03:37:49;37.20;;;12.57;;
54683;SDS011;40582;53.100;6.686;2022-10-14T03:40:17;78.22;;;14.25;;
54683;SDS011;40582;53.100;6.686;2022-10-14T03:42:43;90.50;;;14.98;;
54683;SDS011;40582;53.100;6.686;2022-10-14T03:45:09;111.65;;;16.15;;
54683;SDS011;40582;53.100;6.686;2022-10-14T03:47:34;140.90;;;17.10;;
54683;SDS011;40582;53.100;6.686;2022-10-14T03:50:00;75.20;;;15.20;;
54683;SDS011;40582;53.100;6.686;2022-10-14T03:52:28;119.07;;;16.38;;
54683;SDS011;40582;53.100;6.686;2022-10-14T03:54:53;62.28;;;16.13;;
54683;SDS011;40582;53.100;6.686;2022-10-14T03:57:19;67.88;;;15.88;;
54683;SDS011;40582;53.100;6.686;2022-10-14T03:59:45;63.85;;;15.57;;
54683;SDS011;40582;53.100;6.686;2022-10-14T04:02:10;119.55;;;15.40;;
54683;SDS011;40582;53.100;6.686;2022-10-14T04:04:36;65.95;;;15.60;;
54683;SDS011;40582;53.100;6.686;2022-10-14T04:07:02;74.00;;;15.95;;
54683;SDS011;40582;53.100;6.686;2022-10-14T04:09:27;76.47;;;15.27;;
54683;SDS011;40582;53.100;6.686;2022-10-14T04:11:53;91.72;;;16.67;;
54683;SDS011;40582;53.100;6.686;2022-10-14T04:14:22;85.68;;;15.15;;
54683;SDS011;40582;53.100;6.686;2022-10-14T04:16:48;51.92;;;15.10;;
54683;SDS011;40582;53.100;6.686;2022-10-14T04:19:13;80.55;;;16.98;;
54683;SDS011;40582;53.100;6.686;2022-10-14T04:21:39;56.83;;;15.52;;
54683;SDS011;40582;53.100;6.686;2022-10-14T04:24:05;83.63;;;15.23;;
54683;SDS011;40582;53.100;6.686;2022-10-14T04:26:31;40.15;;;13.95;;
54683;SDS011;40582;53.100;6.686;2022-10-14T04:28:56;42.83;;;14.23;;
54683;SDS011;40582;53.100;6.686;2022-10-14T04:31:22;25.90;;;15.02;;
54683;SDS011;40582;53.100;6.686;2022-10-14T04:33:47;24.27;;;13.13;;
54683;SDS011;40582;53.100;6.686;2022-10-14T04:36:13;63.33;;;14.02;;
54683;SDS011;40582;53.100;6.686;2022-10-14T04:38:39;40.53;;;14.20;;
54683;SDS011;40582;53.100;6.686;2022-10-14T04:41:05;35.38;;;12.60;;
54683;SDS011;40582;53.100;6.686;2022-10-14T04:43:30;32.00;;;13.52;;
54683;SDS011;40582;53.100;6.686;2022-10-14T04:45:56;64.90;;;14.75;;
54683;SDS011;40582;53.100;6.686;2022-10-14T04:48:22;57.28;;;15.15;;
54683;SDS011;40582;53.100;6.686;2022-10-14T04:50:51;18.58;;;13.93;;
54683;SDS011;40582;53.100;6.686;2022-10-14T04:53:18;32.70;;;15.48;;
54683;SDS011;40582;53.100;6.686;2022-10-14T04:55:44;38.30;;;15.57;;
54683;SDS011;40582;53.100;6.686;2022-10-14T04:58:10;47.83;;;16.55;;
54683;SDS011;40582;53.100;6.686;2022-10-14T05:00:36;75.68;;;15.15;;
54683;SDS011;40582;53.100;6.686;2022-10-14T05:03:02;50.53;;;15.88;;
54683;SDS011;40582;53.100;6.686;2022-10-14T05:05:28;28.67;;;14.57;;
54683;SDS011;40582;53.100;6.686;2022-10-14T05:07:54;74.00;;;17.20;;
54683;SDS011;40582;53.100;6.686;2022-10-14T05:10:20;37.08;;;14.90;;
54683;SDS011;40582;53.100;6.686;2022-10-14T05:12:46;52.10;;;14.75;;
54683;SDS011;40582;53.100;6.686;2022-10-14T05:15:12;40.10;;;14.60;;
54683;SDS011;40582;53.100;6.686;2022-10-14T05:17:38;62.30;;;15.85;;
54683;SDS011;40582;53.100;6.686;2022-10-14T05:20:05;42.13;;;16.35;;
54683;SDS011;40582;53.100;6.686;2022-10-14T05:22:31;41.20;;;16.00;;
54683;SDS011;40582;53.100;6.686;2022-10-14T05:24:57;60.60;;;15.57;;
54683;SDS011;40582;53.100;6.686;2022-10-14T05:27:22;35.38;;;15.48;;
54683;SDS011;40582;53.100;6.686;2022-10-14T05:29:48;63.10;;;17.23;;
54683;SDS011;40582;53.100;6.686;2022-10-14T05:32:14;64.93;;;17.42;;
54683;SDS011;40582;53.100;6.686;2022-10-14T05:34:40;34.25;;;18.15;;
54683;SDS011;40582;53.100;6.686;2022-10-14T05:37:05;33.38;;;17.20;;
54683;SDS011;40582;53.100;6.686;2022-10-14T05:39:31;67.55;;;19.85;;
54683;SDS011;40582;53.100;6.686;2022-10-14T05:41:57;37.08;;;17.45;;
54683;SDS011;40582;53.100;6.686;2022-10-14T05:44:22;43.38;;;18.92;;
54683;SDS011;40582;53.100;6.686;2022-10-14T05:46:48;49.45;;;20.67;;
54683;SDS011;40582;53.100;6.686;2022-10-14T05:49:14;47.85;;;20.27;;
54683;SDS011;40582;53.100;6.686;2022-10-14T05:51:39;60.67;;;24.08;;
54683;SDS011;40582;53.100;6.686;2022-10-14T05:54:05;58.20;;;22.45;;
54683;SDS011;40582;53.100;6.686;2022-10-14T05:56:31;71.03;;;23.63;;
54683;SDS011;40582;53.100;6.686;2022-10-14T05:58:56;74.53;;;22.27;;
54683;SDS011;40582;53.100;6.686;2022-10-14T06:01:22;52.28;;;21.67;;
54683;SDS011;40582;53.100;6.686;2022-10-14T06:03:51;51.53;;;22.73;;
54683;SDS011;40582;53.100;6.686;2022-10-14T06:06:17;45.40;;;21.98;;
54683;SDS011;40582;53.100;6.686;2022-10-14T06:08:43;52.38;;;23.63;;
54683;SDS011;40582;53.100;6.686;2022-10-14T06:11:09;48.47;;;21.88;;
54683;SDS011;40582;53.100;6.686;2022-10-14T06:13:36;51.50;;;22.67;;
54683;SDS011;40582;53.100;6.686;2022-10-14T06:16:05;62.38;;;24.23;;
54683;SDS011;40582;53.100;6.686;2022-10-14T06:18:32;52.70;;;23.67;;
54683;SDS011;40582;53.100;6.686;2022-10-14T06:20:59;59.60;;;24.88;;
54683;SDS011;40582;53.100;6.686;2022-10-14T06:23:25;57.97;;;24.52;;
54683;SDS011;40582;53.100;6.686;2022-10-14T06:25:51;49.58;;;22.55;;
54683;SDS011;40582;53.100;6.686;2022-10-14T06:28:17;54.53;;;24.45;;
54683;SDS011;40582;53.100;6.686;2022-10-14T06:30:53;61.95;;;24.73;;
54683;SDS011;40582;53.100;6.686;2022-10-14T06:33:19;83.43;;;27.08;;
54683;SDS011;40582;53.100;6.686;2022-10-14T06:35:46;71.82;;;26.30;;
54683;SDS011;40582;53.100;6.686;2022-10-14T06:38:12;80.25;;;25.65;;
54683;SDS011;40582;53.100;6.686;2022-10-14T06:40:38;65.47;;;26.70;;
54683;SDS011;40582;53.100;6.686;2022-10-14T06:43:04;103.28;;;27.85;;
54683;SDS011;40582;53.100;6.686;2022-10-14T06:45:29;63.55;;;28.00;;
54683;SDS011;40582;53.100;6.686;2022-10-14T06:47:55;82.88;;;29.35;;
54683;SDS011;40582;53.100;6.686;2022-10-14T06:50:21;71.00;;;28.17;;
54683;SDS011;40582;53.100;6.686;2022-10-14T06:52:47;73.53;;;28.10;;
54683;SDS011;40582;53.100;6.686;2022-10-14T06:55:13;65.47;;;27.45;;
54683;SDS011;40582;53.100;6.686;2022-10-14T06:57:39;62.33;;;26.05;;
54683;SDS011;40582;53.100;6.686;2022-10-14T07:00:05;79.25;;;29.83;;
54683;SDS011;40582;53.100;6.686;2022-10-14T07:02:31;60.30;;;26.83;;
54683;SDS011;40582;53.100;6.686;2022-10-14T07:04:57;70.55;;;28.48;;
54683;SDS011;40582;53.100;6.686;2022-10-14T07:07:23;68.05;;;29.38;;
54683;SDS011;40582;53.100;6.686;2022-10-14T07:09:49;81.10;;;28.83;;
54683;SDS011;40582;53.100;6.686;2022-10-14T07:12:14;68.05;;;28.73;;
54683;SDS011;40582;53.100;6.686;2022-10-14T07:14:40;69.97;;;30.08;;
54683;SDS011;40582;53.100;6.686;2022-10-14T07:17:06;69.45;;;29.70;;
54683;SDS011;40582;53.100;6.686;2022-10-14T07:19:33;69.88;;;31.48;;
54683;SDS011;40582;53.100;6.686;2022-10-14T07:21:58;67.72;;;30.33;;
54683;SDS011;40582;53.100;6.686;2022-10-14T07:24:24;65.22;;;30.08;;
54683;SDS011;40582;53.100;6.686;2022-10-14T07:26:50;65.65;;;31.85;;
54683;SDS011;40582;53.100;6.686;2022-10-14T07:29:16;70.75;;;32.55;;
54683;SDS011;40582;53.100;6.686;2022-10-14T07:31:42;63.65;;;31.17;;
54683;SDS011;40582;53.100;6.686;2022-10-14T07:34:08;56.28;;;30.00;;
54683;SDS011;40582;53.100;6.686;2022-10-14T07:36:34;67.93;;;32.75;;
54683;SDS011;40582;53.100;6.686;2022-10-14T07:39:00;62.67;;;32.63;;
54683;SDS011;40582;53.100;6.686;2022-10-14T07:41:26;61.28;;;32.08;;
54683;SDS011;40582;53.100;6.686;2022-10-14T07:43:53;60.33;;;32.47;;
54683;SDS011;40582;53.100;6.686;2022-10-14T07:46:26;59.10;;;32.20;;
54683;SDS011;40582;53.100;6.686;2022-10-14T07:48:56;58.88;;;30.75;;
54683;SDS011;40582;53.100;6.686;2022-10-14T07:51:24;56.35;;;29.30;;
54683;SDS011;40582;53.100;6.686;2022-10-14T07:53:51;57.28;;;30.38;;
54683;SDS011;40582;53.100;6.686;2022-10-14T07:56:17;54.25;;;29.33;;
54683;SDS011;40582;53.100;6.686;2022-10-14T07:58:43;63.08;;;31.48;;
54683;SDS011;40582;53.100;6.686;2022-10-14T08:01:10;51.13;;;29.27;;
54683;SDS011;40582;53.100;6.686;2022-10-14T08:03:36;57.50;;;30.42;;
54683;SDS011;40582;53.100;6.686;2022-10-14T08:06:02;61.03;;;32.25;;
54683;SDS011;40582;53.100;6.686;2022-10-14T08:08:29;62.53;;;31.13;;
54683;SDS011;40582;53.100;6.686;2022-10-14T08:10:59;55.00;;;30.52;;
54683;SDS011;40582;53.100;6.686;2022-10-14T08:13:30;54.25;;;30.45;;
54683;SDS011;40582;53.100;6.686;2022-10-14T08:15:56;66.63;;;30.65;;
54683;SDS011;40582;53.100;6.686;2022-10-14T08:18:22;51.22;;;28.88;;
54683;SDS011;40582;53.100;6.686;2022-10-14T08:20:48;54.22;;;30.65;;
54683;SDS011;40582;53.100;6.686;2022-10-14T08:23:13;53.65;;;29.33;;
54683;SDS011;40582;53.100;6.686;2022-10-14T08:25:39;50.55;;;29.20;;
54683;SDS011;40582;53.100;6.686;2022-10-14T08:28:05;49.75;;;29.58;;
54683;SDS011;40582;53.100;6.686;2022-10-14T08:30:31;56.55;;;29.33;;
54683;SDS011;40582;53.100;6.686;2022-10-14T08:32:56;47.53;;;28.63;;
54683;SDS011;40582;53.100;6.686;2022-10-14T08:35:24;50.25;;;29.75;;
54683;SDS011;40582;53.100;6.686;2022-10-14T08:37:56;45.60;;;28.83;;
54683;SDS011;40582;53.100;6.686;2022-10-14T08:40:28;46.88;;;28.55;;
54683;SDS011;40582;53.100;6.686;2022-10-14T08:45:40;44.20;;;26.50;;
54683;SDS011;40582;53.100;6.686;2022-10-14T08:48:15;44.53;;;26.92;;
54683;SDS011;40582;53.100;6.686;2022-10-14T08:50:50;39.72;;;25.35;;
54683;SDS011;40582;53.100;6.686;2022-10-14T08:53:25;42.42;;;27.20;;
54683;SDS011;40582;53.100;6.686;2022-10-14T08:55:57;46.67;;;28.58;;
54683;SDS011;40582;53.100;6.686;2022-10-14T09:01:24;47.72;;;29.00;;
54683;SDS011;40582;53.100;6.686;2022-10-14T09:03:56;43.45;;;28.95;;
54683;SDS011;40582;53.100;6.686;2022-10-14T09:06:29;52.08;;;31.15;;
54683;SDS011;40582;53.100;6.686;2022-10-14T09:11:36;48.28;;;29.95;;
54683;SDS011;40582;53.100;6.686;2022-10-14T09:14:05;46.05;;;29.42;;
54683;SDS011;40582;53.100;6.686;2022-10-14T09:16:34;50.45;;;29.00;;
54683;SDS011;40582;53.100;6.686;2022-10-14T09:19:25;43.28;;;28.50;;
54683;SDS011;40582;53.100;6.686;2022-10-14T09:22:00;43.13;;;29.13;;
54683;SDS011;40582;53.100;6.686;2022-10-14T09:24:30;40.58;;;27.42;;
54683;SDS011;40582;53.100;6.686;2022-10-14T09:29:30;41.13;;;28.08;;
54683;SDS011;40582;53.100;6.686;2022-10-14T09:32:06;41.58;;;27.40;;
54683;SDS011;40582;53.100;6.686;2022-10-14T09:34:40;47.47;;;29.10;;
54683;SDS011;40582;53.100;6.686;2022-10-14T09:40:00;45.33;;;28.98;;
54683;SDS011;40582;53.100;6.686;2022-10-14T09:42:49;45.97;;;29.17;;
54683;SDS011;40582;53.100;6.686;2022-10-14T09:48:18;40.97;;;27.48;;
54683;SDS011;40582;53.100;6.686;2022-10-14T09:50:56;48.55;;;29.35;;
54683;SDS011;40582;53.100;6.686;2022-10-14T09:53:32;48.50;;;29.38;;
54683;SDS011;40582;53.100;6.686;2022-10-14T09:56:03;49.40;;;28.73;;
54683;SDS011;40582;53.100;6.686;2022-10-14T10:01:15;44.50;;;28.98;;
54683;SDS011;40582;53.100;6.686;2022-10-14T10:03:43;42.53;;;27.85;;
54683;SDS011;40582;53.100;6.686;2022-10-14T10:06:14;46.70;;;29.50;;
54683;SDS011;40582;53.100;6.686;2022-10-14T10:11:34;55.67;;;29.90;;
54683;SDS011;40582;53.100;6.686;2022-10-14T10:14:15;56.00;;;29.50;;
54683;SDS011;40582;53.100;6.686;2022-10-14T10:16:56;52.90;;;30.35;;
54683;SDS011;40582;53.100;6.686;2022-10-14T10:19:47;52.35;;;29.25;;
54683;SDS011;40582;53.100;6.686;2022-10-14T10:24:44;57.22;;;29.08;;
54683;SDS011;40582;53.100;6.686;2022-10-14T10:27:18;56.67;;;30.17;;
54683;SDS011;40582;53.100;6.686;2022-10-14T10:29:44;52.67;;;27.10;;
54683;SDS011;40582;53.100;6.686;2022-10-14T10:32:15;45.97;;;28.15;;
54683;SDS011;40582;53.100;6.686;2022-10-14T10:37:49;50.30;;;27.60;;
54683;SDS011;40582;53.100;6.686;2022-10-14T10:40:37;61.92;;;28.73;;
54683;SDS011;40582;53.100;6.686;2022-10-14T10:48:46;45.45;;;24.70;;
54683;SDS011;40582;53.100;6.686;2022-10-14T10:51:29;53.10;;;24.73;;
54683;SDS011;40582;53.100;6.686;2022-10-14T11:00:05;53.05;;;26.38;;
54683;SDS011;40582;53.100;6.686;2022-10-14T11:05:28;46.03;;;24.55;;
54683;SDS011;40582;53.100;6.686;2022-10-14T11:11:00;64.47;;;27.13;;
54683;SDS011;40582;53.100;6.686;2022-10-14T11:14:14;50.08;;;25.40;;
54683;SDS011;40582;53.100;6.686;2022-10-14T11:24:56;48.20;;;25.13;;
54683;SDS011;40582;53.100;6.686;2022-10-14T11:30:38;44.60;;;24.05;;
54683;SDS011;40582;53.100;6.686;2022-10-14T11:35:50;45.70;;;23.73;;
54683;SDS011;40582;53.100;6.686;2022-10-14T11:38:23;66.47;;;28.75;;
54683;SDS011;40582;53.100;6.686;2022-10-14T11:44:06;48.58;;;24.42;;
54683;SDS011;40582;53.100;6.686;2022-10-14T11:46:45;51.08;;;25.10;;
54683;SDS011;40582;53.100;6.686;2022-10-14T11:49:26;44.28;;;25.13;;
54683;SDS011;40582;53.100;6.686;2022-10-14T11:52:16;59.20;;;27.13;;
54683;SDS011;40582;53.100;6.686;2022-10-14T11:54:56;49.00;;;24.30;;
54683;SDS011;40582;53.100;6.686;2022-10-14T11:57:39;37.75;;;21.85;;
54683;SDS011;40582;53.100;6.686;2022-10-14T12:00:12;34.88;;;20.08;;
54683;SDS011;40582;53.100;6.686;2022-10-14T12:08:23;30.63;;;19.02;;
54683;SDS011;40582;53.100;6.686;2022-10-14T12:13:42;32.72;;;19.23;;
54683;SDS011;40582;53.100;6.686;2022-10-14T12:16:19;26.80;;;17.25;;
54683;SDS011;40582;53.100;6.686;2022-10-14T12:18:48;38.25;;;21.00;;
54683;SDS011;40582;53.100;6.686;2022-10-14T12:21:20;37.78;;;20.73;;
54683;SDS011;40582;53.100;6.686;2022-10-14T12:23:59;31.98;;;19.33;;
54683;SDS011;40582;53.100;6.686;2022-10-14T12:26:33;34.03;;;19.58;;
54683;SDS011;40582;53.100;6.686;2022-10-14T12:29:14;36.08;;;20.90;;
54683;SDS011;40582;53.100;6.686;2022-10-14T12:31:47;32.15;;;20.85;;
54683;SDS011;40582;53.100;6.686;2022-10-14T12:34:15;33.67;;;20.58;;
54683;SDS011;40582;53.100;6.686;2022-10-14T12:36:50;38.97;;;21.98;;
54683;SDS011;40582;53.100;6.686;2022-10-14T12:41:48;38.22;;;22.45;;
54683;SDS011;40582;53.100;6.686;2022-10-14T12:44:18;37.05;;;22.13;;
54683;SDS011;40582;53.100;6.686;2022-10-14T12:46:47;43.45;;;26.17;;
54683;SDS011;40582;53.100;6.686;2022-10-14T12:49:29;44.10;;;26.23;;
54683;SDS011;40582;53.100;6.686;2022-10-14T12:52:00;59.25;;;30.08;;
54683;SDS011;40582;53.100;6.686;2022-10-14T12:54:29;46.85;;;27.17;;
54683;SDS011;40582;53.100;6.686;2022-10-14T12:57:01;49.38;;;28.17;;
54683;SDS011;40582;53.100;6.686;2022-10-14T12:59:33;50.90;;;30.00;;
54683;SDS011;40582;53.100;6.686;2022-10-14T13:02:03;62.20;;;33.15;;
54683;SDS011;40582;53.100;6.686;2022-10-14T13:04:51;56.50;;;32.50;;
54683;SDS011;40582;53.100;6.686;2022-10-14T13:10:24;72.53;;;36.65;;
54683;SDS011;40582;53.100;6.686;2022-10-14T13:13:44;59.67;;;35.58;;
54683;SDS011;40582;53.100;6.686;2022-10-14T13:18:49;65.32;;;36.22;;
54683;SDS011;40582;53.100;6.686;2022-10-14T13:23:51;75.90;;;38.63;;
54683;SDS011;40582;53.100;6.686;2022-10-14T13:37:02;80.25;;;41.42;;
54683;SDS011;40582;53.100;6.686;2022-10-14T13:39:39;71.43;;;40.55;;
54683;SDS011;40582;53.100;6.686;2022-10-14T13:42:04;93.18;;;43.45;;
54683;SDS011;40582;53.100;6.686;2022-10-14T13:44:30;94.50;;;45.90;;
54683;SDS011;40582;53.100;6.686;2022-10-14T13:46:56;81.30;;;42.08;;
54683;SDS011;40582;53.100;6.686;2022-10-14T13:49:30;88.63;;;44.17;;
54683;SDS011;40582;53.100;6.686;2022-10-14T13:52:03;78.35;;;42.08;;
54683;SDS011;40582;53.100;6.686;2022-10-14T13:54:37;105.05;;;45.10;;
54683;SDS011;40582;53.100;6.686;2022-10-14T13:57:11;88.10;;;44.95;;
54683;SDS011;40582;53.100;6.686;2022-10-14T13:59:38;86.20;;;43.40;;
54683;SDS011;40582;53.100;6.686;2022-10-14T14:02:13;78.95;;;41.65;;
54683;SDS011;40582;53.100;6.686;2022-10-14T14:04:41;87.20;;;44.33;;
54683;SDS011;40582;53.100;6.686;2022-10-14T14:07:14;75.07;;;42.22;;
54683;SDS011;40582;53.100;6.686;2022-10-14T14:09:47;80.43;;;43.47;;
54683;SDS011;40582;53.100;6.686;2022-10-14T14:12:15;75.32;;;41.28;;
54683;SDS011;40582;53.100;6.686;2022-10-14T14:14:43;69.47;;;38.55;;
54683;SDS011;40582;53.100;6.686;2022-10-14T14:17:19;83.28;;;42.17;;
54683;SDS011;40582;53.100;6.686;2022-10-14T14:19:47;65.05;;;39.03;;
54683;SDS011;40582;53.100;6.686;2022-10-14T14:24:45;78.10;;;37.85;;
54683;SDS011;40582;53.100;6.686;2022-10-14T14:27:13;63.60;;;36.83;;
54683;SDS011;40582;53.100;6.686;2022-10-14T14:29:48;58.72;;;35.15;;
54683;SDS011;40582;53.100;6.686;2022-10-14T14:32:16;51.35;;;32.85;;
54683;SDS011;40582;53.100;6.686;2022-10-14T14:34:48;50.22;;;32.67;;
54683;SDS011;40582;53.100;6.686;2022-10-14T14:37:24;47.65;;;30.27;;
54683;SDS011;40582;53.100;6.686;2022-10-14T14:40:02;38.45;;;26.15;;
54683;SDS011;40582;53.100;6.686;2022-10-14T14:42:37;39.05;;;27.50;;
54683;SDS011;40582;53.100;6.686;2022-10-14T14:45:18;44.67;;;28.03;;
54683;SDS011;40582;53.100;6.686;2022-10-14T14:47:55;44.25;;;31.08;;
54683;SDS011;40582;53.100;6.686;2022-10-14T14:50:30;44.67;;;27.33;;
54683;SDS011;40582;53.100;6.686;2022-10-14T14:53:02;40.63;;;27.92;;
54683;SDS011;40582;53.100;6.686;2022-10-14T15:00:50;40.55;;;27.40;;
54683;SDS011;40582;53.100;6.686;2022-10-14T15:03:18;31.52;;;23.42;;
54683;SDS011;40582;53.100;6.686;2022-10-14T15:05:49;35.83;;;25.67;;
54683;SDS011;40582;53.100;6.686;2022-10-14T15:08:38;37.45;;;26.50;;
54683;SDS011;40582;53.100;6.686;2022-10-14T15:11:03;40.17;;;27.73;;
54683;SDS011;40582;53.100;6.686;2022-10-14T15:16:05;37.33;;;27.23;;
54683;SDS011;40582;53.100;6.686;2022-10-14T15:18:32;36.53;;;23.73;;
54683;SDS011;40582;53.100;6.686;2022-10-14T15:23:37;37.65;;;25.15;;
54683;SDS011;40582;53.100;6.686;2022-10-14T15:31:32;34.40;;;23.30;;
54683;SDS011;40582;53.100;6.686;2022-10-14T15:34:02;38.72;;;23.20;;
54683;SDS011;40582;53.100;6.686;2022-10-14T15:36:32;31.80;;;23.88;;
54683;SDS011;40582;53.100;6.686;2022-10-14T15:38:58;28.65;;;22.70;;
54683;SDS011;40582;53.100;6.686;2022-10-14T15:41:26;32.10;;;23.40;;
54683;SDS011;40582;53.100;6.686;2022-10-14T15:43:52;30.10;;;24.02;;
54683;SDS011;40582;53.100;6.686;2022-10-14T15:46:18;31.75;;;24.20;;
54683;SDS011;40582;53.100;6.686;2022-10-14T15:49:04;29.92;;;22.95;;
54683;SDS011;40582;53.100;6.686;2022-10-14T15:51:37;30.75;;;22.73;;
54683;SDS011;40582;53.100;6.686;2022-10-14T15:54:03;28.90;;;23.40;;
54683;SDS011;40582;53.100;6.686;2022-10-14T15:56:30;32.78;;;22.30;;
54683;SDS011;40582;53.100;6.686;2022-10-14T15:58:56;29.35;;;23.05;;
54683;SDS011;40582;53.100;6.686;2022-10-14T16:01:21;38.28;;;23.63;;
54683;SDS011;40582;53.100;6.686;2022-10-14T16:03:48;31.80;;;22.92;;
54683;SDS011;40582;53.100;6.686;2022-10-14T16:06:16;31.40;;;25.05;;
54683;SDS011;40582;53.100;6.686;2022-10-14T16:08:43;33.72;;;24.67;;
54683;SDS011;40582;53.100;6.686;2022-10-14T16:11:18;31.45;;;24.80;;
54683;SDS011;40582;53.100;6.686;2022-10-14T16:13:47;32.25;;;23.95;;
54683;SDS011;40582;53.100;6.686;2022-10-14T16:16:13;36.33;;;26.48;;
54683;SDS011;40582;53.100;6.686;2022-10-14T16:18:45;31.55;;;23.40;;
54683;SDS011;40582;53.100;6.686;2022-10-14T16:21:15;33.33;;;25.50;;
54683;SDS011;40582;53.100;6.686;2022-10-14T16:23:41;26.55;;;22.52;;
54683;SDS011;40582;53.100;6.686;2022-10-14T16:26:08;32.47;;;24.42;;
54683;SDS011;40582;53.100;6.686;2022-10-14T16:28:34;37.15;;;24.63;;
54683;SDS011;40582;53.100;6.686;2022-10-14T16:31:00;32.50;;;25.00;;
54683;SDS011;40582;53.100;6.686;2022-10-14T16:33:25;33.90;;;25.15;;
54683;SDS011;40582;53.100;6.686;2022-10-14T16:35:52;36.05;;;25.27;;
54683;SDS011;40582;53.100;6.686;2022-10-14T16:38:19;30.15;;;25.27;;
54683;SDS011;40582;53.100;6.686;2022-10-14T16:40:52;32.47;;;24.77;;
54683;SDS011;40582;53.100;6.686;2022-10-14T16:43:25;33.08;;;24.42;;
54683;SDS011;40582;53.100;6.686;2022-10-14T16:45:51;34.40;;;23.55;;
54683;SDS011;40582;53.100;6.686;2022-10-14T16:48:17;34.25;;;25.73;;